KDXR/DXR METAR and TAF weather

Enter ICAO airport designator
Station Type Date Time Source
KDXR METAR 2021/07/26 15:53 UTC NOAA

KDXR 261553Z 01006KT 8SM CLR 30/17 A2991 RMK AO2 SLP124 T03000172


Station Type Date Time Source
KDXR Decoded METAR 2021/07/26 15:53 UTC NOAA

DANBURY MUNICIPAL AIRPORT, CT, United States (KDXR) 41-22N 073-29W 139M
Jul 26, 2021 - 11:53 AM EDT / 2021.07.26 1553 UTC
Wind: from the N (010 degrees) at 7 MPH (6 KT):0
Visibility: 8 mile(s):0
Sky conditions: clear
Temperature: 86.0 F (30.0 C)
Dew Point: 63.0 F (17.2 C)
Relative Humidity: 46%
Pressure (altimeter): 29.91 in. Hg (1012 hPa)
ob: KDXR 261553Z 01006KT 8SM CLR 30/17 A2991 RMK AO2 SLP124 T03000172
cycle: 16

Station Type Date Time Source
KDXR TAF UTC NOAA

Error!

Example: see airport list